sensor_id;sensor_type;location;lat;lon;timestamp;P1;durP1;ratioP1;P2;durP2;ratioP2
77769;SDS011;66961;51.482;9.160;2024-03-22T00:01:39;15.70;;;7.97;;
77769;SDS011;66961;51.482;9.160;2024-03-22T00:04:04;14.67;;;8.30;;
77769;SDS011;66961;51.482;9.160;2024-03-22T00:06:30;16.23;;;8.45;;
77769;SDS011;66961;51.482;9.160;2024-03-22T00:08:55;14.83;;;8.90;;
77769;SDS011;66961;51.482;9.160;2024-03-22T00:11:20;16.93;;;9.03;;
77769;SDS011;66961;51.482;9.160;2024-03-22T00:13:45;22.30;;;9.23;;
77769;SDS011;66961;51.482;9.160;2024-03-22T00:16:11;14.90;;;8.67;;
77769;SDS011;66961;51.482;9.160;2024-03-22T00:18:36;18.23;;;9.70;;
77769;SDS011;66961;51.482;9.160;2024-03-22T00:21:01;18.13;;;9.40;;
77769;SDS011;66961;51.482;9.160;2024-03-22T00:23:26;16.40;;;9.50;;
77769;SDS011;66961;51.482;9.160;2024-03-22T00:25:52;18.90;;;9.53;;
77769;SDS011;66961;51.482;9.160;2024-03-22T00:28:17;20.30;;;10.13;;
77769;SDS011;66961;51.482;9.160;2024-03-22T00:30:42;19.70;;;10.33;;
77769;SDS011;66961;51.482;9.160;2024-03-22T00:33:07;18.77;;;9.70;;
77769;SDS011;66961;51.482;9.160;2024-03-22T00:35:32;18.63;;;10.83;;
77769;SDS011;66961;51.482;9.160;2024-03-22T00:37:58;20.50;;;11.03;;
77769;SDS011;66961;51.482;9.160;2024-03-22T00:40:23;21.23;;;11.20;;
77769;SDS011;66961;51.482;9.160;2024-03-22T00:42:48;20.97;;;9.97;;
77769;SDS011;66961;51.482;9.160;2024-03-22T00:45:14;17.57;;;10.50;;
77769;SDS011;66961;51.482;9.160;2024-03-22T00:47:39;17.83;;;9.97;;
77769;SDS011;66961;51.482;9.160;2024-03-22T00:50:04;18.20;;;9.63;;
77769;SDS011;66961;51.482;9.160;2024-03-22T00:52:30;17.30;;;9.60;;
77769;SDS011;66961;51.482;9.160;2024-03-22T00:54:55;15.47;;;9.57;;
77769;SDS011;66961;51.482;9.160;2024-03-22T00:57:21;18.90;;;9.47;;
77769;SDS011;66961;51.482;9.160;2024-03-22T00:59:46;19.58;;;9.63;;
77769;SDS011;66961;51.482;9.160;2024-03-22T01:02:11;19.07;;;10.10;;
77769;SDS011;66961;51.482;9.160;2024-03-22T01:04:37;19.83;;;10.63;;
77769;SDS011;66961;51.482;9.160;2024-03-22T01:07:02;23.23;;;11.73;;
77769;SDS011;66961;51.482;9.160;2024-03-22T01:09:27;24.47;;;11.10;;
77769;SDS011;66961;51.482;9.160;2024-03-22T01:11:52;21.38;;;11.70;;
77769;SDS011;66961;51.482;9.160;2024-03-22T01:14:18;22.30;;;10.63;;
77769;SDS011;66961;51.482;9.160;2024-03-22T01:16:43;18.73;;;9.43;;
77769;SDS011;66961;51.482;9.160;2024-03-22T01:19:08;15.27;;;8.57;;
77769;SDS011;66961;51.482;9.160;2024-03-22T01:21:33;16.43;;;9.37;;
77769;SDS011;66961;51.482;9.160;2024-03-22T01:23:59;16.60;;;9.03;;
77769;SDS011;66961;51.482;9.160;2024-03-22T01:26:24;16.95;;;9.23;;
77769;SDS011;66961;51.482;9.160;2024-03-22T01:28:49;20.90;;;11.07;;
77769;SDS011;66961;51.482;9.160;2024-03-22T01:31:15;23.60;;;12.30;;
77769;SDS011;66961;51.482;9.160;2024-03-22T01:33:40;25.88;;;12.45;;
77769;SDS011;66961;51.482;9.160;2024-03-22T01:36:05;26.53;;;14.00;;
77769;SDS011;66961;51.482;9.160;2024-03-22T01:38:31;27.58;;;13.25;;
77769;SDS011;66961;51.482;9.160;2024-03-22T01:40:56;26.42;;;13.23;;
77769;SDS011;66961;51.482;9.160;2024-03-22T01:43:22;31.98;;;14.30;;
77769;SDS011;66961;51.482;9.160;2024-03-22T01:45:47;29.23;;;14.50;;
77769;SDS011;66961;51.482;9.160;2024-03-22T01:48:12;31.27;;;15.25;;
77769;SDS011;66961;51.482;9.160;2024-03-22T01:50:37;34.97;;;16.73;;
77769;SDS011;66961;51.482;9.160;2024-03-22T01:53:03;35.13;;;15.68;;
77769;SDS011;66961;51.482;9.160;2024-03-22T01:55:28;36.78;;;16.08;;
77769;SDS011;66961;51.482;9.160;2024-03-22T01:57:54;37.17;;;16.75;;
77769;SDS011;66961;51.482;9.160;2024-03-22T02:00:20;33.85;;;15.40;;
77769;SDS011;66961;51.482;9.160;2024-03-22T02:02:46;35.15;;;17.20;;
77769;SDS011;66961;51.482;9.160;2024-03-22T02:05:15;35.47;;;16.48;;
77769;SDS011;66961;51.482;9.160;2024-03-22T02:07:41;35.22;;;16.58;;
77769;SDS011;66961;51.482;9.160;2024-03-22T02:10:07;35.65;;;17.00;;
77769;SDS011;66961;51.482;9.160;2024-03-22T02:12:34;36.10;;;16.05;;
77769;SDS011;66961;51.482;9.160;2024-03-22T02:14:59;36.70;;;16.23;;
77769;SDS011;66961;51.482;9.160;2024-03-22T02:17:24;40.17;;;17.35;;
77769;SDS011;66961;51.482;9.160;2024-03-22T02:19:50;39.20;;;17.47;;
77769;SDS011;66961;51.482;9.160;2024-03-22T02:22:16;41.25;;;18.10;;
77769;SDS011;66961;51.482;9.160;2024-03-22T02:24:41;38.83;;;18.27;;
77769;SDS011;66961;51.482;9.160;2024-03-22T02:27:06;37.83;;;17.23;;
77769;SDS011;66961;51.482;9.160;2024-03-22T02:29:32;37.63;;;16.98;;
77769;SDS011;66961;51.482;9.160;2024-03-22T02:31:57;37.50;;;17.17;;
77769;SDS011;66961;51.482;9.160;2024-03-22T02:34:22;40.93;;;17.70;;
77769;SDS011;66961;51.482;9.160;2024-03-22T02:36:47;40.90;;;18.17;;
77769;SDS011;66961;51.482;9.160;2024-03-22T02:39:13;40.00;;;18.20;;
77769;SDS011;66961;51.482;9.160;2024-03-22T02:41:38;39.80;;;18.20;;
77769;SDS011;66961;51.482;9.160;2024-03-22T02:44:03;38.17;;;18.40;;
77769;SDS011;66961;51.482;9.160;2024-03-22T02:46:29;38.10;;;17.30;;
77769;SDS011;66961;51.482;9.160;2024-03-22T02:48:54;38.47;;;18.03;;
77769;SDS011;66961;51.482;9.160;2024-03-22T02:51:19;41.10;;;18.13;;
77769;SDS011;66961;51.482;9.160;2024-03-22T02:53:44;40.10;;;17.27;;
77769;SDS011;66961;51.482;9.160;2024-03-22T02:56:10;39.90;;;18.60;;
77769;SDS011;66961;51.482;9.160;2024-03-22T02:58:35;37.00;;;17.27;;
77769;SDS011;66961;51.482;9.160;2024-03-22T03:01:00;38.83;;;18.47;;
77769;SDS011;66961;51.482;9.160;2024-03-22T03:03:25;40.57;;;19.00;;
77769;SDS011;66961;51.482;9.160;2024-03-22T03:05:51;39.97;;;18.40;;
77769;SDS011;66961;51.482;9.160;2024-03-22T03:08:16;37.40;;;18.47;;
77769;SDS011;66961;51.482;9.160;2024-03-22T03:10:41;40.23;;;19.20;;
77769;SDS011;66961;51.482;9.160;2024-03-22T03:13:06;40.73;;;18.80;;
77769;SDS011;66961;51.482;9.160;2024-03-22T03:15:32;42.43;;;18.83;;
77769;SDS011;66961;51.482;9.160;2024-03-22T03:17:57;38.57;;;19.27;;
77769;SDS011;66961;51.482;9.160;2024-03-22T03:20:22;41.83;;;19.33;;
77769;SDS011;66961;51.482;9.160;2024-03-22T03:22:48;40.47;;;19.53;;
77769;SDS011;66961;51.482;9.160;2024-03-22T03:25:13;41.50;;;20.00;;
77769;SDS011;66961;51.482;9.160;2024-03-22T03:27:39;44.20;;;20.08;;
77769;SDS011;66961;51.482;9.160;2024-03-22T03:30:04;48.37;;;19.97;;
77769;SDS011;66961;51.482;9.160;2024-03-22T03:32:30;45.90;;;19.67;;
77769;SDS011;66961;51.482;9.160;2024-03-22T03:34:55;40.88;;;18.27;;
77769;SDS011;66961;51.482;9.160;2024-03-22T03:37:21;43.53;;;19.30;;
77769;SDS011;66961;51.482;9.160;2024-03-22T03:39:46;45.00;;;19.77;;
77769;SDS011;66961;51.482;9.160;2024-03-22T03:42:11;46.63;;;20.55;;
77769;SDS011;66961;51.482;9.160;2024-03-22T03:44:37;41.10;;;19.80;;
77769;SDS011;66961;51.482;9.160;2024-03-22T03:47:02;45.53;;;21.52;;
77769;SDS011;66961;51.482;9.160;2024-03-22T03:49:28;46.83;;;21.48;;
77769;SDS011;66961;51.482;9.160;2024-03-22T03:51:53;44.35;;;20.35;;
77769;SDS011;66961;51.482;9.160;2024-03-22T03:54:18;44.42;;;20.17;;
77769;SDS011;66961;51.482;9.160;2024-03-22T03:56:43;42.70;;;21.38;;
77769;SDS011;66961;51.482;9.160;2024-03-22T03:59:09;41.73;;;20.33;;
77769;SDS011;66961;51.482;9.160;2024-03-22T04:01:34;48.90;;;21.83;;
77769;SDS011;66961;51.482;9.160;2024-03-22T04:03:59;47.33;;;20.03;;
77769;SDS011;66961;51.482;9.160;2024-03-22T04:06:25;46.03;;;21.40;;
77769;SDS011;66961;51.482;9.160;2024-03-22T04:08:50;54.13;;;21.07;;
77769;SDS011;66961;51.482;9.160;2024-03-22T04:11:15;47.63;;;22.03;;
77769;SDS011;66961;51.482;9.160;2024-03-22T04:13:40;45.93;;;20.07;;
77769;SDS011;66961;51.482;9.160;2024-03-22T04:16:06;50.00;;;22.75;;
77769;SDS011;66961;51.482;9.160;2024-03-22T04:18:31;48.03;;;20.80;;
77769;SDS011;66961;51.482;9.160;2024-03-22T04:20:57;48.87;;;22.17;;
77769;SDS011;66961;51.482;9.160;2024-03-22T04:23:24;46.50;;;21.13;;
77769;SDS011;66961;51.482;9.160;2024-03-22T04:25:56;46.90;;;20.73;;
77769;SDS011;66961;51.482;9.160;2024-03-22T04:28:23;46.00;;;20.75;;
77769;SDS011;66961;51.482;9.160;2024-03-22T04:30:58;48.47;;;20.83;;
77769;SDS011;66961;51.482;9.160;2024-03-22T04:33:30;48.47;;;21.27;;
77769;SDS011;66961;51.482;9.160;2024-03-22T04:35:57;46.42;;;21.65;;
77769;SDS011;66961;51.482;9.160;2024-03-22T04:38:23;51.42;;;21.80;;
77769;SDS011;66961;51.482;9.160;2024-03-22T04:40:49;45.28;;;19.85;;
77769;SDS011;66961;51.482;9.160;2024-03-22T04:43:15;43.97;;;20.75;;
77769;SDS011;66961;51.482;9.160;2024-03-22T04:45:44;48.42;;;21.63;;
77769;SDS011;66961;51.482;9.160;2024-03-22T04:48:12;48.50;;;20.77;;
77769;SDS011;66961;51.482;9.160;2024-03-22T04:50:38;48.10;;;20.38;;
77769;SDS011;66961;51.482;9.160;2024-03-22T04:53:03;48.72;;;21.70;;
77769;SDS011;66961;51.482;9.160;2024-03-22T04:55:28;44.17;;;19.98;;
77769;SDS011;66961;51.482;9.160;2024-03-22T04:57:54;51.97;;;21.27;;
77769;SDS011;66961;51.482;9.160;2024-03-22T05:00:19;49.43;;;21.33;;
77769;SDS011;66961;51.482;9.160;2024-03-22T05:02:44;51.23;;;20.17;;
77769;SDS011;66961;51.482;9.160;2024-03-22T05:05:10;47.47;;;21.85;;
77769;SDS011;66961;51.482;9.160;2024-03-22T05:07:36;47.92;;;19.55;;
77769;SDS011;66961;51.482;9.160;2024-03-22T05:10:01;43.63;;;19.30;;
77769;SDS011;66961;51.482;9.160;2024-03-22T05:12:27;48.22;;;20.02;;
77769;SDS011;66961;51.482;9.160;2024-03-22T05:14:52;49.60;;;20.33;;
77769;SDS011;66961;51.482;9.160;2024-03-22T05:17:17;46.97;;;19.37;;
77769;SDS011;66961;51.482;9.160;2024-03-22T05:19:42;50.67;;;19.70;;
77769;SDS011;66961;51.482;9.160;2024-03-22T05:22:08;44.30;;;18.13;;
77769;SDS011;66961;51.482;9.160;2024-03-22T05:24:33;43.60;;;19.07;;
77769;SDS011;66961;51.482;9.160;2024-03-22T05:26:58;42.13;;;19.93;;
77769;SDS011;66961;51.482;9.160;2024-03-22T05:29:24;42.47;;;17.80;;
77769;SDS011;66961;51.482;9.160;2024-03-22T05:31:49;45.47;;;20.03;;
77769;SDS011;66961;51.482;9.160;2024-03-22T05:34:15;41.13;;;18.92;;
77769;SDS011;66961;51.482;9.160;2024-03-22T05:36:40;41.03;;;17.67;;
77769;SDS011;66961;51.482;9.160;2024-03-22T05:39:06;42.45;;;18.15;;
77769;SDS011;66961;51.482;9.160;2024-03-22T05:41:31;43.08;;;18.88;;
77769;SDS011;66961;51.482;9.160;2024-03-22T05:43:56;40.77;;;17.67;;
77769;SDS011;66961;51.482;9.160;2024-03-22T05:46:21;42.90;;;17.77;;
77769;SDS011;66961;51.482;9.160;2024-03-22T05:48:47;41.47;;;17.23;;
77769;SDS011;66961;51.482;9.160;2024-03-22T05:51:12;41.90;;;17.63;;
77769;SDS011;66961;51.482;9.160;2024-03-22T05:53:37;41.07;;;17.13;;
77769;SDS011;66961;51.482;9.160;2024-03-22T05:56:03;41.43;;;18.03;;
77769;SDS011;66961;51.482;9.160;2024-03-22T05:58:28;45.50;;;18.80;;
77769;SDS011;66961;51.482;9.160;2024-03-22T06:00:53;40.07;;;17.40;;
77769;SDS011;66961;51.482;9.160;2024-03-22T06:03:19;40.93;;;17.47;;
77769;SDS011;66961;51.482;9.160;2024-03-22T06:05:44;41.27;;;18.27;;
77769;SDS011;66961;51.482;9.160;2024-03-22T06:08:09;38.23;;;17.00;;
77769;SDS011;66961;51.482;9.160;2024-03-22T06:10:34;39.33;;;17.70;;
77769;SDS011;66961;51.482;9.160;2024-03-22T06:13:00;37.33;;;16.93;;
77769;SDS011;66961;51.482;9.160;2024-03-22T06:15:25;36.87;;;16.87;;
77769;SDS011;66961;51.482;9.160;2024-03-22T06:17:50;38.27;;;16.43;;
77769;SDS011;66961;51.482;9.160;2024-03-22T06:20:15;36.63;;;15.87;;
77769;SDS011;66961;51.482;9.160;2024-03-22T06:22:41;36.60;;;16.63;;
77769;SDS011;66961;51.482;9.160;2024-03-22T06:25:06;35.33;;;16.33;;
77769;SDS011;66961;51.482;9.160;2024-03-22T06:27:31;35.57;;;16.40;;
77769;SDS011;66961;51.482;9.160;2024-03-22T06:29:56;37.83;;;16.60;;
77769;SDS011;66961;51.482;9.160;2024-03-22T06:32:22;43.03;;;17.47;;
77769;SDS011;66961;51.482;9.160;2024-03-22T06:34:47;36.03;;;17.00;;
77769;SDS011;66961;51.482;9.160;2024-03-22T06:37:12;38.00;;;15.93;;
77769;SDS011;66961;51.482;9.160;2024-03-22T06:39:37;37.50;;;16.97;;
77769;SDS011;66961;51.482;9.160;2024-03-22T06:42:03;32.70;;;16.10;;
77769;SDS011;66961;51.482;9.160;2024-03-22T06:44:28;34.40;;;16.20;;
77769;SDS011;66961;51.482;9.160;2024-03-22T06:46:53;34.50;;;16.50;;
77769;SDS011;66961;51.482;9.160;2024-03-22T06:49:19;38.30;;;17.03;;
77769;SDS011;66961;51.482;9.160;2024-03-22T06:51:44;34.50;;;16.27;;
77769;SDS011;66961;51.482;9.160;2024-03-22T06:54:09;32.77;;;15.10;;
77769;SDS011;66961;51.482;9.160;2024-03-22T06:56:34;33.70;;;14.87;;
77769;SDS011;66961;51.482;9.160;2024-03-22T06:59:00;36.33;;;15.50;;
77769;SDS011;66961;51.482;9.160;2024-03-22T07:01:25;33.37;;;14.67;;
77769;SDS011;66961;51.482;9.160;2024-03-22T07:03:50;34.20;;;15.67;;
77769;SDS011;66961;51.482;9.160;2024-03-22T07:06:15;36.70;;;17.33;;
77769;SDS011;66961;51.482;9.160;2024-03-22T07:08:41;30.85;;;14.90;;
77769;SDS011;66961;51.482;9.160;2024-03-22T07:11:06;28.93;;;14.10;;
77769;SDS011;66961;51.482;9.160;2024-03-22T07:13:32;37.63;;;16.38;;
77769;SDS011;66961;51.482;9.160;2024-03-22T07:15:57;32.40;;;15.20;;
77769;SDS011;66961;51.482;9.160;2024-03-22T07:18:23;33.00;;;15.37;;
77769;SDS011;66961;51.482;9.160;2024-03-22T07:20:48;29.83;;;14.53;;
77769;SDS011;66961;51.482;9.160;2024-03-22T07:23:13;33.50;;;15.50;;
77769;SDS011;66961;51.482;9.160;2024-03-22T07:25:38;31.33;;;14.20;;
77769;SDS011;66961;51.482;9.160;2024-03-22T07:28:04;36.47;;;15.53;;
77769;SDS011;66961;51.482;9.160;2024-03-22T07:30:29;31.45;;;15.90;;
77769;SDS011;66961;51.482;9.160;2024-03-22T07:32:55;34.43;;;15.80;;
77769;SDS011;66961;51.482;9.160;2024-03-22T07:35:20;30.87;;;15.43;;
77769;SDS011;66961;51.482;9.160;2024-03-22T07:37:45;28.23;;;13.87;;
77769;SDS011;66961;51.482;9.160;2024-03-22T07:40:10;32.53;;;13.60;;
77769;SDS011;66961;51.482;9.160;2024-03-22T07:42:36;31.27;;;13.50;;
77769;SDS011;66961;51.482;9.160;2024-03-22T07:45:01;30.17;;;13.77;;
77769;SDS011;66961;51.482;9.160;2024-03-22T07:47:26;31.17;;;13.55;;
77769;SDS011;66961;51.482;9.160;2024-03-22T07:49:52;28.63;;;14.20;;
77769;SDS011;66961;51.482;9.160;2024-03-22T07:52:18;30.30;;;14.35;;
77769;SDS011;66961;51.482;9.160;2024-03-22T07:54:43;29.97;;;14.00;;
77769;SDS011;66961;51.482;9.160;2024-03-22T07:57:09;30.43;;;14.63;;
77769;SDS011;66961;51.482;9.160;2024-03-22T07:59:34;27.07;;;13.40;;
77769;SDS011;66961;51.482;9.160;2024-03-22T08:01:59;31.47;;;13.80;;
77769;SDS011;66961;51.482;9.160;2024-03-22T08:04:24;27.93;;;13.70;;
77769;SDS011;66961;51.482;9.160;2024-03-22T08:06:50;26.77;;;13.97;;
77769;SDS011;66961;51.482;9.160;2024-03-22T08:09:15;26.92;;;13.85;;
77769;SDS011;66961;51.482;9.160;2024-03-22T08:11:41;29.48;;;15.10;;
77769;SDS011;66961;51.482;9.160;2024-03-22T08:14:06;28.83;;;14.48;;
77769;SDS011;66961;51.482;9.160;2024-03-22T08:16:31;32.90;;;14.70;;
77769;SDS011;66961;51.482;9.160;2024-03-22T08:18:57;26.50;;;13.38;;
77769;SDS011;66961;51.482;9.160;2024-03-22T08:21:23;27.55;;;14.23;;
77769;SDS011;66961;51.482;9.160;2024-03-22T08:23:49;26.77;;;13.55;;
77769;SDS011;66961;51.482;9.160;2024-03-22T08:26:14;27.08;;;14.73;;
77769;SDS011;66961;51.482;9.160;2024-03-22T08:28:40;28.40;;;13.70;;
77769;SDS011;66961;51.482;9.160;2024-03-22T08:31:05;27.73;;;14.20;;
77769;SDS011;66961;51.482;9.160;2024-03-22T08:33:30;28.55;;;13.88;;
77769;SDS011;66961;51.482;9.160;2024-03-22T08:35:56;24.97;;;12.73;;
77769;SDS011;66961;51.482;9.160;2024-03-22T08:38:21;27.05;;;14.27;;
77769;SDS011;66961;51.482;9.160;2024-03-22T08:40:46;27.23;;;14.20;;
77769;SDS011;66961;51.482;9.160;2024-03-22T08:43:12;27.07;;;14.30;;
77769;SDS011;66961;51.482;9.160;2024-03-22T08:45:37;26.17;;;13.87;;
77769;SDS011;66961;51.482;9.160;2024-03-22T08:48:02;26.90;;;14.07;;
77769;SDS011;66961;51.482;9.160;2024-03-22T08:50:28;30.15;;;15.02;;
77769;SDS011;66961;51.482;9.160;2024-03-22T08:52:53;26.98;;;13.90;;
77769;SDS011;66961;51.482;9.160;2024-03-22T08:55:18;28.35;;;14.90;;
77769;SDS011;66961;51.482;9.160;2024-03-22T08:57:44;25.45;;;14.30;;
77769;SDS011;66961;51.482;9.160;2024-03-22T09:00:09;23.70;;;13.48;;
77769;SDS011;66961;51.482;9.160;2024-03-22T09:02:35;27.90;;;14.43;;
77769;SDS011;66961;51.482;9.160;2024-03-22T09:05:01;26.50;;;13.80;;
77769;SDS011;66961;51.482;9.160;2024-03-22T09:07:26;27.07;;;14.33;;
77769;SDS011;66961;51.482;9.160;2024-03-22T09:09:51;29.10;;;14.03;;
77769;SDS011;66961;51.482;9.160;2024-03-22T09:12:16;24.10;;;14.13;;
77769;SDS011;66961;51.482;9.160;2024-03-22T09:14:42;27.07;;;15.13;;
77769;SDS011;66961;51.482;9.160;2024-03-22T09:17:07;23.88;;;13.48;;
77769;SDS011;66961;51.482;9.160;2024-03-22T09:19:32;27.60;;;14.70;;
77769;SDS011;66961;51.482;9.160;2024-03-22T09:21:57;25.40;;;13.63;;
77769;SDS011;66961;51.482;9.160;2024-03-22T09:24:23;20.43;;;13.37;;
77769;SDS011;66961;51.482;9.160;2024-03-22T09:26:48;26.97;;;14.63;;
77769;SDS011;66961;51.482;9.160;2024-03-22T09:29:13;21.97;;;13.30;;
77769;SDS011;66961;51.482;9.160;2024-03-22T09:31:38;23.50;;;13.30;;
77769;SDS011;66961;51.482;9.160;2024-03-22T09:34:04;23.10;;;13.13;;
77769;SDS011;66961;51.482;9.160;2024-03-22T09:36:29;21.23;;;12.57;;
77769;SDS011;66961;51.482;9.160;2024-03-22T09:38:54;22.73;;;13.23;;
77769;SDS011;66961;51.482;9.160;2024-03-22T09:41:24;21.07;;;12.93;;
77769;SDS011;66961;51.482;9.160;2024-03-22T09:43:51;20.50;;;11.25;;
77769;SDS011;66961;51.482;9.160;2024-03-22T09:46:17;14.55;;;9.15;;
77769;SDS011;66961;51.482;9.160;2024-03-22T09:48:44;15.30;;;9.05;;
77769;SDS011;66961;51.482;9.160;2024-03-22T09:51:11;14.48;;;8.68;;
77769;SDS011;66961;51.482;9.160;2024-03-22T09:53:37;13.73;;;8.45;;
77769;SDS011;66961;51.482;9.160;2024-03-22T09:56:04;13.63;;;7.70;;
77769;SDS011;66961;51.482;9.160;2024-03-22T09:58:30;15.32;;;8.45;;
77769;SDS011;66961;51.482;9.160;2024-03-22T10:00:56;15.20;;;8.93;;
77769;SDS011;66961;51.482;9.160;2024-03-22T10:03:21;11.83;;;7.63;;
77769;SDS011;66961;51.482;9.160;2024-03-22T10:05:46;14.00;;;8.20;;
77769;SDS011;66961;51.482;9.160;2024-03-22T10:08:12;16.00;;;8.43;;
77769;SDS011;66961;51.482;9.160;2024-03-22T10:10:37;12.43;;;7.60;;
77769;SDS011;66961;51.482;9.160;2024-03-22T10:13:03;12.47;;;7.73;;
77769;SDS011;66961;51.482;9.160;2024-03-22T10:15:29;13.15;;;7.70;;
77769;SDS011;66961;51.482;9.160;2024-03-22T10:17:56;14.63;;;7.60;;
77769;SDS011;66961;51.482;9.160;2024-03-22T10:20:22;12.15;;;7.30;;
77769;SDS011;66961;51.482;9.160;2024-03-22T10:22:56;12.03;;;7.30;;
77769;SDS011;66961;51.482;9.160;2024-03-22T10:25:23;12.20;;;7.25;;
77769;SDS011;66961;51.482;9.160;2024-03-22T10:27:49;12.38;;;7.60;;
77769;SDS011;66961;51.482;9.160;2024-03-22T10:30:15;13.90;;;7.75;;
77769;SDS011;66961;51.482;9.160;2024-03-22T10:32:41;10.38;;;6.80;;
77769;SDS011;66961;51.482;9.160;2024-03-22T10:35:07;10.48;;;6.63;;
77769;SDS011;66961;51.482;9.160;2024-03-22T10:37:37;12.30;;;7.03;;
77769;SDS011;66961;51.482;9.160;2024-03-22T10:40:02;12.02;;;6.45;;
77769;SDS011;66961;51.482;9.160;2024-03-22T10:42:28;10.57;;;6.63;;
77769;SDS011;66961;51.482;9.160;2024-03-22T10:44:53;11.60;;;6.50;;
77769;SDS011;66961;51.482;9.160;2024-03-22T10:47:19;10.27;;;5.90;;
77769;SDS011;66961;51.482;9.160;2024-03-22T10:49:47;9.95;;;6.25;;
77769;SDS011;66961;51.482;9.160;2024-03-22T10:52:14;10.25;;;6.43;;
77769;SDS011;66961;51.482;9.160;2024-03-22T10:54:40;9.00;;;6.10;;
77769;SDS011;66961;51.482;9.160;2024-03-22T10:57:11;9.70;;;6.18;;
77769;SDS011;66961;51.482;9.160;2024-03-22T10:59:38;12.40;;;6.90;;
77769;SDS011;66961;51.482;9.160;2024-03-22T11:02:06;11.07;;;6.45;;
77769;SDS011;66961;51.482;9.160;2024-03-22T11:04:31;9.10;;;6.18;;
77769;SDS011;66961;51.482;9.160;2024-03-22T11:06:57;11.18;;;6.45;;
77769;SDS011;66961;51.482;9.160;2024-03-22T11:09:23;10.88;;;6.40;;
77769;SDS011;66961;51.482;9.160;2024-03-22T11:11:54;8.75;;;5.47;;
77769;SDS011;66961;51.482;9.160;2024-03-22T11:14:20;9.57;;;5.95;;
77769;SDS011;66961;51.482;9.160;2024-03-22T11:16:46;10.15;;;5.70;;
77769;SDS011;66961;51.482;9.160;2024-03-22T11:19:12;10.98;;;5.50;;
77769;SDS011;66961;51.482;9.160;2024-03-22T11:21:38;9.82;;;6.00;;
77769;SDS011;66961;51.482;9.160;2024-03-22T11:24:04;9.30;;;6.18;;
77769;SDS011;66961;51.482;9.160;2024-03-22T11:26:30;10.32;;;5.60;;
77769;SDS011;66961;51.482;9.160;2024-03-22T11:28:55;7.57;;;4.82;;
77769;SDS011;66961;51.482;9.160;2024-03-22T11:31:21;7.43;;;4.67;;
77769;SDS011;66961;51.482;9.160;2024-03-22T11:33:47;8.40;;;5.10;;
77769;SDS011;66961;51.482;9.160;2024-03-22T11:36:13;8.05;;;5.22;;
77769;SDS011;66961;51.482;9.160;2024-03-22T11:38:39;8.50;;;5.13;;
77769;SDS011;66961;51.482;9.160;2024-03-22T11:41:04;8.23;;;5.22;;
77769;SDS011;66961;51.482;9.160;2024-03-22T11:43:30;6.72;;;5.20;;
77769;SDS011;66961;51.482;9.160;2024-03-22T11:45:56;7.35;;;4.93;;
77769;SDS011;66961;51.482;9.160;2024-03-22T11:48:22;7.50;;;5.18;;
77769;SDS011;66961;51.482;9.160;2024-03-22T11:50:47;9.98;;;4.93;;
77769;SDS011;66961;51.482;9.160;2024-03-22T11:53:13;7.32;;;5.13;;
77769;SDS011;66961;51.482;9.160;2024-03-22T11:55:41;7.88;;;4.63;;
77769;SDS011;66961;51.482;9.160;2024-03-22T11:58:08;7.93;;;4.78;;
77769;SDS011;66961;51.482;9.160;2024-03-22T12:00:34;7.40;;;4.20;;
77769;SDS011;66961;51.482;9.160;2024-03-22T12:02:59;7.15;;;4.32;;
77769;SDS011;66961;51.482;9.160;2024-03-22T12:05:24;7.37;;;4.47;;
77769;SDS011;66961;51.482;9.160;2024-03-22T12:07:51;7.43;;;4.63;;
77769;SDS011;66961;51.482;9.160;2024-03-22T12:10:16;7.22;;;4.05;;
77769;SDS011;66961;51.482;9.160;2024-03-22T12:12:41;7.63;;;4.27;;
77769;SDS011;66961;51.482;9.160;2024-03-22T12:15:07;5.90;;;4.30;;
77769;SDS011;66961;51.482;9.160;2024-03-22T12:17:32;6.85;;;3.92;;
77769;SDS011;66961;51.482;9.160;2024-03-22T12:19:57;7.83;;;4.10;;
77769;SDS011;66961;51.482;9.160;2024-03-22T12:22:23;6.77;;;4.63;;
77769;SDS011;66961;51.482;9.160;2024-03-22T12:24:48;6.93;;;3.90;;
77769;SDS011;66961;51.482;9.160;2024-03-22T12:27:13;5.87;;;4.10;;
77769;SDS011;66961;51.482;9.160;2024-03-22T12:29:39;7.05;;;4.28;;
77769;SDS011;66961;51.482;9.160;2024-03-22T12:32:04;7.27;;;4.60;;
77769;SDS011;66961;51.482;9.160;2024-03-22T12:34:30;6.80;;;4.00;;
77769;SDS011;66961;51.482;9.160;2024-03-22T12:36:55;6.93;;;3.97;;
77769;SDS011;66961;51.482;9.160;2024-03-22T12:39:21;6.83;;;3.63;;
77769;SDS011;66961;51.482;9.160;2024-03-22T12:41:46;6.75;;;3.80;;
77769;SDS011;66961;51.482;9.160;2024-03-22T12:44:12;6.15;;;3.75;;
77769;SDS011;66961;51.482;9.160;2024-03-22T12:46:37;6.03;;;3.90;;
77769;SDS011;66961;51.482;9.160;2024-03-22T12:49:02;7.00;;;4.17;;
77769;SDS011;66961;51.482;9.160;2024-03-22T12:51:27;6.20;;;3.33;;
77769;SDS011;66961;51.482;9.160;2024-03-22T12:53:53;5.83;;;3.40;;
77769;SDS011;66961;51.482;9.160;2024-03-22T12:56:18;5.43;;;3.20;;
77769;SDS011;66961;51.482;9.160;2024-03-22T12:58:43;9.10;;;3.50;;
77769;SDS011;66961;51.482;9.160;2024-03-22T13:01:09;5.57;;;3.53;;
77769;SDS011;66961;51.482;9.160;2024-03-22T13:03:34;5.68;;;3.30;;
77769;SDS011;66961;51.482;9.160;2024-03-22T13:05:59;4.78;;;2.75;;
77769;SDS011;66961;51.482;9.160;2024-03-22T13:08:24;5.80;;;2.40;;
77769;SDS011;66961;51.482;9.160;2024-03-22T13:10:50;6.28;;;2.63;;
77769;SDS011;66961;51.482;9.160;2024-03-22T13:13:15;4.90;;;2.60;;
77769;SDS011;66961;51.482;9.160;2024-03-22T13:15:40;6.53;;;2.72;;
77769;SDS011;66961;51.482;9.160;2024-03-22T13:18:06;6.93;;;3.13;;
77769;SDS011;66961;51.482;9.160;2024-03-22T13:20:32;5.75;;;2.92;;
77769;SDS011;66961;51.482;9.160;2024-03-22T13:22:59;6.43;;;2.58;;
77769;SDS011;66961;51.482;9.160;2024-03-22T13:25:25;6.20;;;3.10;;
77769;SDS011;66961;51.482;9.160;2024-03-22T13:27:50;4.40;;;2.83;;
77769;SDS011;66961;51.482;9.160;2024-03-22T13:30:16;4.17;;;2.80;;
77769;SDS011;66961;51.482;9.160;2024-03-22T13:32:41;5.97;;;2.78;;
77769;SDS011;66961;51.482;9.160;2024-03-22T13:35:06;5.20;;;2.90;;
77769;SDS011;66961;51.482;9.160;2024-03-22T13:37:32;4.35;;;2.92;;
77769;SDS011;66961;51.482;9.160;2024-03-22T13:39:57;7.03;;;3.30;;
77769;SDS011;66961;51.482;9.160;2024-03-22T13:42:23;6.32;;;2.70;;
77769;SDS011;66961;51.482;9.160;2024-03-22T13:44:48;6.22;;;3.05;;
77769;SDS011;66961;51.482;9.160;2024-03-22T13:47:14;4.43;;;2.70;;
77769;SDS011;66961;51.482;9.160;2024-03-22T13:49:39;4.90;;;2.67;;
77769;SDS011;66961;51.482;9.160;2024-03-22T13:52:04;5.27;;;2.73;;
77769;SDS011;66961;51.482;9.160;2024-03-22T13:54:29;7.97;;;3.63;;
77769;SDS011;66961;51.482;9.160;2024-03-22T13:56:55;6.67;;;2.57;;
77769;SDS011;66961;51.482;9.160;2024-03-22T13:59:20;7.70;;;3.40;;
77769;SDS011;66961;51.482;9.160;2024-03-22T14:01:45;6.40;;;2.90;;
77769;SDS011;66961;51.482;9.160;2024-03-22T14:04:11;7.23;;;3.50;;
77769;SDS011;66961;51.482;9.160;2024-03-22T14:06:37;6.22;;;2.92;;
77769;SDS011;66961;51.482;9.160;2024-03-22T14:09:03;5.13;;;3.17;;
77769;SDS011;66961;51.482;9.160;2024-03-22T14:11:29;6.05;;;3.00;;
77769;SDS011;66961;51.482;9.160;2024-03-22T14:13:54;4.75;;;2.80;;
77769;SDS011;66961;51.482;9.160;2024-03-22T14:16:20;4.17;;;2.43;;
77769;SDS011;66961;51.482;9.160;2024-03-22T14:18:45;5.53;;;3.13;;